Data for 09/08/2013

Time Sea-Level Adjusted Pressure Absolute Pressure Temperature Relative Humidity Dew Point Precipitation   
(mb) (inHg) (mb) (inHg) (C) (F) (%) (C) (F) (mm) (in)
00:05 1022 30.18 851 25.13 13.1 55.6 69 7.5 45.6 0 0
00:10 1022 30.18 851 25.13 13 55.5 67 7.2 44.9 0 0
00:15 1022 30.18 851 25.13 13.8 56.8 64 7.1 44.8 0 0
00:20 1022 30.18 851 25.13 15 59.1 63 8.1 46.6 0 0
00:25 1022 30.18 851 25.13 15.3 59.5 65 8.8 47.9 0 0
00:30 1022 30.18 851 25.13 15.3 59.6 67 9.2 48.6 0 0
00:35 1022 30.18 851 25.13 15.1 59.2 69 9.4 49 0 0
00:40 1022 30.18 851 25.13 15.2 59.4 69 9.6 49.2 0 0
00:45 1022 30.18 851 25.13 15.3 59.5 69 9.6 49.3 0 0
00:50 1022 30.18 851 25.13 15.2 59.4 70 9.8 49.6 0 0
00:55 1022 30.18 851 25.13 15.1 59.2 71 10 50 0 0
01:00 1022 30.18 851 25.13 15.1 59.1 72 10.1 50.2 0 0
01:05 1022 30.18 851 25.13 15 59 73 10.2 50.3 0 0
01:10 1022 30.18 851 25.13 14.9 58.8 74 10.3 50.6 0 0
01:15 1022 30.18 851 25.13 14.8 58.6 75 10.4 50.7 0 0
01:20 1022 30.18 851 25.13 14.8 58.6 76 10.6 51.1 0 0
01:25 1022 30.18 851 25.13 14.7 58.5 76 10.6 51 0 0
01:30 1022 30.18 851 25.13 14.7 58.4 77 10.7 51.2 0 0
01:35 1022 30.18 851 25.13 14.6 58.3 77 10.7 51.2 0 0
01:40 1022 30.18 851 25.13 14.6 58.2 78 10.9 51.6 0 0
01:45 1022 30.18 851 25.13 14.4 57.9 79 10.8 51.5 0 0
01:50 1022 30.18 851 25.13 14.6 58.3 78 10.9 51.6 0 0
01:55 1022 30.18 851 25.13 14.6 58.3 78 10.9 51.7 0 0
02:00 1022 30.18 851 25.13 14.7 58.4 79 11 51.8 0 0
02:05 1022 30.18 851 25.13 14.7 58.4 79 11.1 51.9 0 0
02:10 1022 30.18 851 25.13 14.5 58.1 79 11 51.8 0 0
02:15 1022 30.18 851 25.13 14.6 58.3 79 11.1 51.9 0 0
02:20 1022 30.18 851 25.13 14.7 58.5 79 11.2 52.1 0 0
02:25 1022 30.18 851 25.13 14.8 58.6 79 11.2 52.1 0 0
02:30 1022 30.18 851 25.13 14.8 58.6 79 11.2 52.2 0 0
02:35 1022 30.18 851 25.13 14.7 58.5 79 11.2 52.2 0 0
02:40 1022 30.18 851 25.13 14.7 58.4 80 11.2 52.2 0 0
02:45 1022 30.18 851 25.13 14.5 58.1 81 11.3 52.3 0 0
02:50 1021 30.15 851 25.13 14.4 57.9 81 11.3 52.3 0 0
02:55 1021 30.15 851 25.13 14.4 57.9 81 11.2 52.2 0 0
03:00 1021 30.15 851 25.13 14.4 58 81 11.2 52.1 0 0
03:05 1021 30.15 851 25.13 14.4 58 80 11.1 52 0 0
03:10 1021 30.15 851 25.13 14.5 58.1 80 11.1 52 0 0
03:15 1021 30.15 851 25.13 14.6 58.2 79 11 51.8 0 0
03:20 1021 30.15 851 25.13 14.6 58.3 79 11.1 52 0 0
03:25 1021 30.15 851 25.13 14.5 58.2 80 11.1 52.1 0 0
03:30 1021 30.15 851 25.13 14.5 58 80 11.1 52 0 0
03:35 1021 30.15 851 25.13 14.4 58 80 11 51.8 0 0
03:40 1021 30.15 851 25.13 14.4 58 80 11 51.8 0 0
03:45 1021 30.15 851 25.13 14.3 57.7 80 11 51.8 0 0
03:50 1021 30.15 851 25.13 14.2 57.6 80 10.9 51.6 0 0
03:55 1021 30.15 851 25.13 14.3 57.7 80 10.9 51.5 0 0
04:00 1021 30.15 851 25.13 14.3 57.7 80 10.8 51.4 0 0
04:05 1021 30.15 851 25.13 14.3 57.7 79 10.7 51.3 0 0
04:10 1021 30.15 851 25.13 14.2 57.6 80 10.9 51.6 0 0
04:15 1021 30.15 851 25.13 14 57.2 81 10.8 51.5 0 0
04:20 1021 30.15 851 25.13 13.8 56.8 83 11 51.7 0 0
04:25 1021 30.15 851 25.13 13.6 56.4 83 10.8 51.5 0 0
04:30 1021 30.15 851 25.13 13.7 56.6 83 10.9 51.6 0 0
04:35 1021 30.15 851 25.13 13.7 56.7 83 10.8 51.5 0 0
04:40 1021 30.15 851 25.13 13.7 56.6 83 10.9 51.6 0 0
04:45 1021 30.15 851 25.13 13.8 56.8 82 10.8 51.5 0 0
04:50 1021 30.15 851 25.13 13.7 56.7 83 10.9 51.6 0 0
04:55 1021 30.15 851 25.13 13.7 56.6 82 10.7 51.3 0 0
05:00 1022 30.18 851 25.13 13.5 56.3 80 10.1 50.1 0 0
05:05 1022 30.18 851 25.13 13 55.4 77 9.1 48.4 0 0
05:10 1022 30.18 851 25.13 12.6 54.7 78 8.9 48 0 0
05:15 1022 30.18 851 25.13 12.4 54.4 77 8.6 47.5 0 0
05:20 1022 30.18 851 25.13 12.4 54.4 78 8.8 47.8 0 0
05:25 1022 30.18 851 25.13 12 53.7 82 9.1 48.3 0 0
05:30 1022 30.18 851 25.13 11.1 52 87 9 48.2 0 0
05:35 1022 30.18 851 25.13 10.8 51.5 87 8.8 47.8 0 0
05:40 1022 30.18 851 25.13 11 51.8 85 8.7 47.6 0 0
05:45 1022 30.18 851 25.13 11.4 52.6 81 8.3 47 0 0
05:50 1022 30.18 851 25.13 11.8 53.2 81 8.6 47.5 0 0
05:55 1022 30.18 851 25.13 11 51.7 86 8.7 47.7 0 0
06:00 1022 30.18 851 25.13 10.7 51.2 85 8.3 47 0 0
06:05 1022 30.18 851 25.13 10.8 51.5 86 8.5 47.4 0 0
06:10 1022 30.18 851 25.13 11.2 52.1 84 8.6 47.5 0 0
06:15 1022 30.18 851 25.13 11.3 52.3 83 8.6 47.5 0 0
06:20 1022 30.18 851 25.13 11.3 52.3 83 8.6 47.4 0 0
06:25 1022 30.18 851 25.13 11 51.7 85 8.6 47.5 0 0
06:30 1022 30.18 851 25.13 10.3 50.5 86 8 46.5 0 0
06:35 1022 30.18 851 25.13 9.2 48.6 90 7.7 45.8 0 0
06:40 1022 30.18 851 25.13 8.7 47.7 91 7.3 45.2 0 0
06:45 1022 30.18 851 25.13 8.4 47.2 93 7.4 45.3 0 0
06:50 1022 30.18 851 25.13 8.3 46.9 94 7.4 45.3 0 0
06:55 1022 30.18 851 25.13 8.5 47.2 95 7.6 45.7 0 0
07:00 1022 30.18 851 25.13 8.6 47.4 93 7.6 45.6 0 0
07:05 1022 30.18 851 25.13 8.5 47.2 95 7.6 45.8 0 0
07:10 1022 30.18 851 25.13 8.5 47.3 94 7.6 45.7 0 0
07:15 1022 30.18 851 25.13 8.4 47.1 95 7.7 45.8 0 0
07:20 1022 30.18 851 25.13 8.4 47.2 95 7.7 45.8 0 0
07:25 1022 30.18 851 25.13 8.5 47.2 95 7.6 45.8 0 0
07:30 1022 30.18 851 25.13 8.5 47.3 95 7.7 45.9 0 0
07:35 1022 30.18 851 25.13 8.6 47.4 95 7.9 46.2 0 0
07:40 1022 30.18 851 25.13 8.9 48.1 95 8.2 46.7 0 0
07:45 1022 30.18 851 25.13 9.3 48.7 94 8.4 47.1 0 0
07:50 1022 30.18 851 25.13 9.4 49 94 8.5 47.3 0 0
07:55 1022 30.18 851 25.13 9.9 49.8 91 8.6 47.4 0 0
08:00 1022 30.18 851 25.13 10.5 50.9 87 8.5 47.3 0 0
08:05 1022 30.18 851 25.13 10.9 51.7 85 8.5 47.2 0 0
08:10 1022 30.18 851 25.13 11.4 52.5 83 8.6 47.5 0 0
08:15 1021 30.15 851 25.13 11.8 53.2 80 8.4 47.2 0 0
08:20 1021 30.15 851 25.13 12.2 54 78 8.5 47.3 0 0
08:25 1021 30.15 851 25.13 12.7 54.8 78 9 48.2 0 0
08:30 1021 30.15 851 25.13 12.8 55 76 8.7 47.6 0 0
08:35 1021 30.15 851 25.13 12.6 54.7 78 9 48.2 0 0
08:40 1021 30.15 851 25.13 12.5 54.4 81 9.3 48.7 0 0
08:45 1021 30.15 851 25.13 12.4 54.4 81 9.2 48.6 0 0
08:50 1021 30.15 851 25.13 12.5 54.5 82 9.5 49.1 0 0
08:55 1021 30.15 851 25.13 12.7 54.8 82 9.6 49.3 0 0
09:00 1021 30.15 851 25.13 13 55.4 80 9.6 49.3 0 0
09:05 1021 30.15 851 25.13 13.4 56.1 80 10.1 50.2 0 0
09:10 1021 30.15 851 25.13 13.8 56.8 77 9.7 49.5 0 0
09:15 1021 30.15 851 25.13 13.7 56.7 76 9.5 49.2 0 0
09:20 1021 30.15 851 25.13 14 57.3 76 9.8 49.7 0 0
09:25 1021 30.15 851 25.13 15 58.9 68 9.2 48.6 0 0
09:30 1021 30.15 851 25.13 15.8 60.4 65 9.3 48.7 0 0
09:35 1021 30.15 851 25.13 16.4 61.6 64 9.7 49.4 0 0
09:40 1021 30.15 851 25.13 16.4 61.4 66 10 49.9 0 0
09:45 1021 30.15 851 25.13 16.3 61.3 65 9.7 49.5 0 0
09:50 1021 30.15 850 25.1 16.6 61.9 61 9.2 48.6 0 0
09:55 1021 30.15 850 25.1 16.4 61.5 66 10 50 0 0
10:00 1021 30.15 850 25.1 16.2 61.2 66 10 49.9 0 0
10:05 1021 30.15 850 25.1 16.2 61.1 67 10.1 50.1 0 0
10:10 1021 30.15 850 25.1 15.9 60.7 66 9.7 49.4 0 0
10:15 1021 30.15 850 25.1 16 60.7 68 10.1 50.1 0 0
10:20 1021 30.15 850 25.1 16.1 60.9 69 10.4 50.8 0 0
10:25 1021 30.15 850 25.1 16.3 61.3 70 10.8 51.4 0 0
10:30 1021 30.15 850 25.1 16.2 61.2 70 10.8 51.5 0 0
10:35 1021 30.15 850 25.1 16.3 61.3 72 11.3 52.3 0 0
10:40 1021 30.15 850 25.1 16.6 61.9 66 10.2 50.4 0 0
10:45 1021 30.15 850 25.1 16.8 62.2 65 10.2 50.4 0 0
10:50 1021 30.15 850 25.1 16.9 62.4 67 10.9 51.6 0 0
10:55 1021 30.15 850 25.1 16.7 62.1 68 10.8 51.4 0 0
11:00 1021 30.15 850 25.1 16.6 61.9 66 10.3 50.5 0 0
11:05 1021 30.15 850 25.1 17.3 63.1 66 11 51.9 0 0
11:10 1021 30.15 850 25.1 17.4 63.4 67 11.2 52.2 0 0
11:15 1021 30.15 850 25.1 17.6 63.6 62 10.4 50.7 0 0
11:20 1021 30.15 850 25.1 17.5 63.6 62 10.3 50.5 0 0
11:25 1021 30.15 850 25.1 18 64.5 61 10.4 50.7 0 0
11:30 1021 30.15 850 25.1 18.3 65 62 10.9 51.7 0 0
11:35 1021 30.15 850 25.1 18.3 65 62 11.1 51.9 0 0
11:40 1021 30.15 850 25.1 18.3 65 63 11.3 52.3 0 0
11:45 1021 30.15 850 25.1 18.5 65.2 57 10 50 0 0
11:50 1020 30.12 850 25.1 18.6 65.4 59 10.4 50.8 0 0
11:55 1020 30.12 850 25.1 18.8 65.8 59 10.7 51.3 0 0
12:00 1020 30.12 850 25.1 18.7 65.7 58 10.4 50.6 0 0
12:05 1020 30.12 849 25.07 18.8 65.9 59 10.7 51.3 0 0
12:10 1020 30.12 850 25.1 18.9 65.9 57 10.2 50.3 0 0
12:15 1020 30.12 849 25.07 18.8 65.8 57 10.2 50.3 0 0
12:20 1020 30.12 850 25.1 18.8 65.9 57 10.2 50.3 0 0
12:25 1020 30.12 849 25.07 18.9 66 55 9.7 49.4 0 0
12:30 1020 30.12 849 25.07 19.2 66.5 53 9.5 49.2 0 0
12:35 1020 30.12 849 25.07 19.1 66.5 54 9.7 49.5 0 0
12:40 1020 30.12 849 25.07 19 66.2 58 10.8 51.4 0 0
12:45 1020 30.12 849 25.07 19.4 66.9 53 9.6 49.3 0 0
12:50 1020 30.12 849 25.07 19.1 66.4 55 10 49.9 0 0
12:55 1020 30.12 849 25.07 19.2 66.6 56 10.2 50.4 0 0
13:00 1020 30.12 849 25.07 19.5 67.1 54 10 50 0 0
13:05 1020 30.12 849 25.07 19.3 66.7 55 10.1 50.1 0 0
13:10 1020 30.12 849 25.07 19.5 67 53 9.7 49.5 0 0
13:15 1020 30.12 849 25.07 19.9 67.7 57 11.3 52.3 0 0
13:20 1020 30.12 849 25.07 20.3 68.5 56 11.4 52.5 0 0
13:25 1020 30.12 849 25.07 20.3 68.6 51 9.9 49.8 0 0
13:30 1019 30.09 849 25.07 20.5 68.9 52 10.6 51.1 0 0
13:35 1019 30.09 849 25.07 21 69.8 48 9.8 49.7 0 0
13:40 1019 30.09 848 25.04 21 69.8 48 9.8 49.6 0 0
13:45 1019 30.09 848 25.04 21.4 70.5 46 9.4 48.9 0 0
13:50 1019 30.09 848 25.04 22.3 72.1 45 10 50 0 0
13:55 1019 30.09 848 25.04 21.9 71.5 46 10 50 0 0
14:00 1019 30.09 848 25.04 21.8 71.3 43 8.8 47.9 0 0
14:05 1019 30.09 848 25.04 21.9 71.4 45 9.7 49.4 0 0
14:10 1019 30.09 848 25.04 22.1 71.7 42 8.8 47.9 0 0
14:15 1019 30.09 848 25.04 22.3 72.2 46 10.3 50.5 0 0
14:20 1019 30.09 848 25.04 22.4 72.4 43 9.3 48.7 0 0
14:25 1019 30.09 848 25.04 22.2 71.9 43 9.2 48.6 0 0
14:30 1019 30.09 848 25.04 22.7 72.8 42 9.2 48.6 0 0
14:35 1019 30.09 848 25.04 23 73.3 46 10.9 51.6 0 0
14:40 1019 30.09 848 25.04 22.5 72.5 45 10.2 50.3 0 0
14:45 1018 30.06 848 25.04 22.8 73 41 9.1 48.3 0 0
14:50 1018 30.06 847 25.01 22.8 73 36 7.2 44.9 0 0
14:55 1018 30.06 847 25.01 23.1 73.6 39 8.8 47.8 0 0
15:00 1018 30.06 847 25.01 23 73.4 37 7.9 46.2 0 0
15:05 1018 30.06 847 25.01 23.5 74.4 38 8.4 47.2 0 0
15:10 1018 30.06 847 25.01 23.4 74.1 36 7.7 45.9 0 0
15:15 1018 30.06 847 25.01 23.7 74.7 36 8 46.3 0 0
15:20 1018 30.06 847 25.01 23.5 74.2 37 8.2 46.8 0 0
15:25 1018 30.06 847 25.01 23.5 74.2 35 7.2 45 0 0
15:30 1018 30.06 847 25.01 23.8 74.8 34 7.2 44.9 0 0
15:35 1018 30.06 847 25.01 23.7 74.6 32 6.2 43.2 0 0
15:40 1017 30.03 847 25.01 23.9 75 31 6.1 43 0 0
15:45 1017 30.03 847 25.01 23.7 74.7 34 7.3 45.2 0 0
15:50 1017 30.03 847 25.01 23.3 73.9 36 7.6 45.7 0 0
15:55 1017 30.03 847 25.01 23 73.3 40 8.9 48 0 0
16:00 1017 30.03 846 24.98 22.8 73.1 39 8.2 46.7 0 0
16:05 1017 30.03 846 24.98 23 73.4 43 10.1 50.2 0 0
16:10 1017 30.03 846 24.98 23.3 74 35 7.4 45.3 0 0
16:15 1017 30.03 846 24.98 23.3 74 36 7.8 46 0 0
16:20 1017 30.03 846 24.98 23 73.3 34 6.3 43.4 0 0
16:25 1017 30.03 846 24.98 23.3 74 33 6.2 43.2 0 0
16:30 1017 30.03 846 24.98 23.4 74.2 31 5.6 42 0 0
16:35 1017 30.03 846 24.98 23.5 74.3 32 6.1 42.9 0 0
16:40 1017 30.03 846 24.98 23.5 74.2 32 5.9 42.6 0 0
16:45 1017 30.03 846 24.98 23.1 73.6 36 7.6 45.6 0 0
16:50 1017 30.03 846 24.98 22.7 72.9 32 5.3 41.6 0 0
16:55 1017 30.03 846 24.98 22.6 72.8 37 7.3 45.1 0 0
17:00 1017 30.03 846 24.98 22.5 72.4 43 9.4 48.9 0 0
17:05 1017 30.03 846 24.98 22.2 71.9 41 8.4 47 0 0
17:10 1017 30.03 846 24.98 22 71.6 43 9 48.1 0 0
17:15 1017 30.03 846 24.98 21.7 71.1 41 8.3 46.9 0 0
17:20 1017 30.03 846 24.98 22.1 71.8 42 8.8 47.8 0 0
17:25 1017 30.03 846 24.98 22.4 72.3 37 7.4 45.3 0 0
17:30 1017 30.03 846 24.98 22.7 72.8 40 8.4 47.2 0 0
17:35 1017 30.03 846 24.98 22.9 73.2 48 11.4 52.4 0 0
17:40 1017 30.03 846 24.98 22.8 73 46 10.6 51.2 0 0
17:45 1017 30.03 846 24.98 22.5 72.6 45 10.3 50.6 0 0
17:50 1017 30.03 846 24.98 22.2 72 43 9.3 48.8 0 0
17:55 1017 30.03 846 24.98 21.7 71 39 7.2 44.9 0 0
18:00 1017 30.03 846 24.98 21.3 70.3 41 7.6 45.7 0 0
18:05 1017 30.03 846 24.98 21.2 70.1 39 7 44.5 0 0
18:10 1017 30.03 846 24.98 20.9 69.5 42 7.5 45.5 0 0
18:15 1017 30.03 846 24.98 20.6 69.1 40 6.7 44.1 0 0
18:20 1017 30.03 846 24.98 20.5 68.9 40 6.6 43.9 0 0
18:25 1017 30.03 846 24.98 20.4 68.8 44 7.8 46 0 0
18:30 1017 30.03 846 24.98 19.8 67.7 49 9.1 48.3 0 0
18:35 1017 30.03 846 24.98 19.3 66.7 53 9.5 49.1 0 0
18:40 1017 30.03 846 24.98 19 66.3 55 9.8 49.7 0 0
18:45 1017 30.03 846 24.98 18.9 66 56 10 50.1 0 0
18:50 1017 30.03 846 24.98 18.8 65.9 52 8.9 48.1 0 0
18:55 1017 30.03 846 24.98 18.6 65.6 52 8.7 47.7 0 0
19:00 1017 30.03 846 24.98 18.5 65.3 52 8.5 47.3 0 0
19:05 1017 30.03 847 25.01 18.4 65.1 51 8.3 47 0 0
19:10 1017 30.03 847 25.01 18.4 65 51 8.1 46.6 0 0
19:15 1017 30.03 847 25.01 18.3 64.9 49 7.6 45.7 0 0
19:20 1018 30.06 847 25.01 18.2 64.7 51 8 46.4 0 0
19:25 1018 30.06 847 25.01 17.7 63.9 58 9.4 48.8 0 0
19:30 1018 30.06 847 25.01 17.3 63.1 53 7.8 46 0 0
19:35 1018 30.06 847 25.01 17.1 62.9 53 7.5 45.6 0 0
19:40 1018 30.06 848 25.04 16.9 62.3 63 9.8 49.6 0 0
19:45 1018 30.06 848 25.04 15.9 60.7 63 8.9 48.1 0 0
19:50 1018 30.06 847 25.01 15.8 60.5 65 9.4 48.9 0 0
19:55 1018 30.06 848 25.04 15.5 59.9 67 9.4 49 0 0
20:00 1019 30.09 848 25.04 14.8 58.6 70 9.3 48.8 0 0
20:05 1019 30.09 848 25.04 14.4 58 67 8.4 47.2 0 0
20:10 1019 30.09 848 25.04 14.4 57.8 69 8.8 47.9 0 0
20:15 1019 30.09 848 25.04 14 57.3 73 9.3 48.7 0 0
20:20 1019 30.09 848 25.04 13.8 56.8 74 9.3 48.8 0 0
20:25 1019 30.09 848 25.04 13.7 56.6 76 9.5 49.1 0 0
20:30 1019 30.09 848 25.04 13.6 56.5 74 9.2 48.6 0 0
20:35 1019 30.09 848 25.04 13.7 56.7 77 9.8 49.6 0 0
20:40 1019 30.09 848 25.04 13.8 56.8 75 9.5 49.1 0 0
20:45 1019 30.09 848 25.04 13.8 56.8 78 10.1 50.2 0 0
20:50 1019 30.09 848 25.04 13.6 56.4 80 10.3 50.5 0 0
20:55 1019 30.09 849 25.07 13.4 56 81 10.2 50.4 0 0
21:00 1019 30.09 849 25.07 13.3 55.9 79 9.8 49.6 0 0
21:05 1019 30.09 849 25.07 13.4 56.1 76 9.3 48.7 0 0
21:10 1019 30.09 849 25.07 13.7 56.6 76 9.6 49.3 0 0
21:15 1019 30.09 849 25.07 13.6 56.5 77 9.6 49.3 0 0
21:20 1019 30.09 849 25.07 13.8 56.8 74 9.2 48.5 0 0
21:25 1020 30.12 849 25.07 13.9 57 72 9.1 48.3 0 0
21:30 1020 30.12 849 25.07 13.9 57 72 9 48.3 0 0
21:35 1020 30.12 849 25.07 13.9 57.1 71 8.9 48 0 0
21:40 1020 30.12 849 25.07 14 57.2 73 9.4 48.8 0 0
21:45 1020 30.12 849 25.07 14 57.1 69 8.4 47.1 0 0
21:50 1020 30.12 849 25.07 14.1 57.5 75 9.8 49.6 0 0
21:55 1020 30.12 849 25.07 13.8 56.8 76 9.7 49.5 0 0
22:00 1020 30.12 849 25.07 13.6 56.5 78 9.8 49.6 0 0
22:05 1020 30.12 849 25.07 13.5 56.3 79 9.9 49.9 0 0
22:10 1020 30.12 849 25.07 13.3 56 81 10.1 50.2 0 0
22:15 1020 30.12 849 25.07 13.2 55.7 81 10 50 0 0
22:20 1020 30.12 849 25.07 13.1 55.6 81 10 50 0 0
22:25 1020 30.12 849 25.07 13.1 55.5 81 10 49.9 0 0
22:30 1020 30.12 849 25.07 13.1 55.6 81 9.9 49.9 0 0
22:35 1020 30.12 849 25.07 13.2 55.7 80 9.9 49.7 0 0
22:40 1020 30.12 850 25.1 13.3 56 80 9.9 49.9 0 0
22:45 1020 30.12 850 25.1 13.2 55.8 85 10.8 51.4 .4 0.016
22:50 1020 30.12 850 25.1 12.9 55.2 84 10.2 50.3 0 0
22:55 1021 30.15 850 25.1 12.9 55.3 86 10.6 51 0 0
23:00 1020 30.12 850 25.1 12.7 54.9 88 10.8 51.4 0 0
23:05 1020 30.12 850 25.1 12.5 54.4 88 10.6 51.1 0 0
23:10 1021 30.15 850 25.1 12.5 54.4 89 10.7 51.2 0 0
23:15 1020 30.12 850 25.1 12.4 54.3 90 10.8 51.5 .4 0.016
23:20 1021 30.15 850 25.1 12.3 54.1 89 10.6 51.1 0 0
23:25 1021 30.15 850 25.1 12.3 54.2 86 10.1 50.3 0 0
23:30 1021 30.15 850 25.1 12.3 54.2 91 10.9 51.6 .8 0.031
23:35 1021 30.15 850 25.1 12 53.5 92 10.8 51.4 0 0
23:40 1021 30.15 850 25.1 11.8 53.3 92 10.5 50.9 0 0
23:45 1021 30.15 850 25.1 12 53.6 89 10.2 50.4 0 0
23:50 1021 30.15 850 25.1 11.9 53.4 92 10.7 51.2 0 0
23:55 1021 30.15 850 25.1 11.6 53 94 10.7 51.2 0 0
24:00 1021 30.15 850 25.1 11.6 52.9 93 10.5 50.9 0 0